Time;durP1;ratioP1;P1;durP2;ratioP2;P2;SDS_P1;SDS_P2;PMS_P1;PMS_P2;Temp;Humidity;BMP_temperature;BMP_pressure;BME280_temperature;BME280_humidity;BME280_pressure;Samples;Min_cycle;Max_cycle;Signal;HPM_P1;HPM_P2
2022/05/20 00:01:53;;;;;;;4.00;3.70;;;;;;;;;;5012065;28;20377;-81
2022/05/20 00:04:19;;;;;;;3.83;3.53;;;;;;;;;;5012056;28;21005;-81
2022/05/20 00:06:45;;;;;;;4.10;3.80;;;;;;;;;;5012113;28;20381;-81
2022/05/20 00:09:11;;;;;;;4.35;3.95;;;;;;;;;;5011914;28;20858;-81
2022/05/20 00:11:37;;;;;;;4.10;3.75;;;;;;;;;;5011932;28;20381;-81
2022/05/20 00:14:05;;;;;;;4.00;3.70;;;;;;;;;;5014321;28;20404;-81
2022/05/20 00:16:31;;;;;;;4.72;3.75;;;;;;;;;;5011945;28;20459;-81
2022/05/20 00:18:57;;;;;;;4.00;3.60;;;;;;;;;;5012135;28;20898;-81
2022/05/20 00:21:23;;;;;;;4.53;3.78;;;;;;;;;;5011757;28;20463;-81
2022/05/20 00:23:49;;;;;;;4.97;3.80;;;;;;;;;;5011844;28;20422;-80
2022/05/20 00:26:15;;;;;;;4.50;4.00;;;;;;;;;;5011830;28;20385;-81
2022/05/20 00:28:43;;;;;;;3.92;3.63;;;;;;;;;;5011882;28;20380;-81
2022/05/20 00:31:10;;;;;;;3.70;3.40;;;;;;;;;;5004298;28;20510;-81
2022/05/20 00:33:40;;;;;;;3.58;3.28;;;;;;;;;;4998322;28;20464;-81
2022/05/20 00:36:06;;;;;;;4.00;3.70;;;;;;;;;;5002718;28;20394;-80
2022/05/20 00:38:32;;;;;;;4.18;3.50;;;;;;;;;;5011763;28;20407;-80
2022/05/20 00:40:58;;;;;;;3.90;3.60;;;;;;;;;;5012440;28;20389;-81
2022/05/20 00:43:24;;;;;;;4.35;3.80;;;;;;;;;;5012982;28;20415;-80
2022/05/20 00:45:51;;;;;;;3.85;3.47;;;;;;;;;;5013280;28;20384;-80
2022/05/20 00:48:17;;;;;;;3.83;3.60;;;;;;;;;;5013363;28;20423;-80
2022/05/20 00:50:48;;;;;;;4.20;3.80;;;;;;;;;;5014479;28;20387;-80
2022/05/20 00:53:16;;;;;;;3.72;3.42;;;;;;;;;;5015036;28;20419;-80
2022/05/20 00:55:44;;;;;;;4.25;3.85;;;;;;;;;;5015145;28;20468;-80
2022/05/20 00:58:11;;;;;;;4.30;3.85;;;;;;;;;;5014995;28;20413;-80
2022/05/20 01:00:40;;;;;;;4.97;3.73;;;;;;;;;;5014930;28;20484;-80
2022/05/20 01:03:08;;;;;;;4.32;3.92;;;;;;;;;;5014688;28;20520;-81
2022/05/20 01:05:42;;;;;;;4.03;3.72;;;;;;;;;;5014826;28;20377;-80
2022/05/20 01:08:08;;;;;;;4.38;3.97;;;;;;;;;;5014794;28;20384;-80
2022/05/20 01:10:35;;;;;;;4.25;3.85;;;;;;;;;;5014727;28;20464;-80
2022/05/20 01:13:01;;;;;;;4.03;3.73;;;;;;;;;;5014488;28;20389;-80
2022/05/20 01:15:28;;;;;;;4.00;3.65;;;;;;;;;;5014631;28;20890;-80
2022/05/20 01:17:55;;;;;;;4.00;3.70;;;;;;;;;;5014567;28;20381;-80
2022/05/20 01:20:25;;;;;;;3.88;3.58;;;;;;;;;;5014581;28;20384;-80
2022/05/20 01:22:54;;;;;;;4.38;3.92;;;;;;;;;;5016647;28;20417;-80
2022/05/20 01:25:22;;;;;;;4.00;3.70;;;;;;;;;;5014693;28;20858;-80
2022/05/20 01:27:48;;;;;;;4.05;3.75;;;;;;;;;;5014248;28;20392;-80
2022/05/20 01:30:15;;;;;;;4.07;3.78;;;;;;;;;;5014453;28;20460;-80
2022/05/20 01:32:41;;;;;;;4.20;3.80;;;;;;;;;;5014292;28;20389;-80
2022/05/20 01:35:11;;;;;;;4.28;3.70;;;;;;;;;;5014257;28;20882;-80
2022/05/20 01:37:37;;;;;;;4.07;3.75;;;;;;;;;;5014245;28;20484;-80
2022/05/20 01:40:03;;;;;;;4.55;4.18;;;;;;;;;;5014173;28;20456;-80
2022/05/20 01:42:31;;;;;;;4.22;3.85;;;;;;;;;;5014171;28;20884;-80
2022/05/20 01:45:02;;;;;;;4.03;3.72;;;;;;;;;;5014237;28;20381;-80
2022/05/20 01:47:40;;;;;;;3.90;3.60;;;;;;;;;;5011073;28;20874;-80
2022/05/20 01:50:21;;;;;;;4.43;4.00;;;;;;;;;;5009215;28;20435;-80
2022/05/20 01:53:00;;;;;;;4.20;3.80;;;;;;;;;;5013886;28;20491;-80
2022/05/20 01:55:33;;;;;;;4.45;3.63;;;;;;;;;;5013837;28;20859;-80
2022/05/20 01:58:06;;;;;;;4.03;3.72;;;;;;;;;;5013887;28;20854;-80
2022/05/20 02:00:33;;;;;;;3.75;3.45;;;;;;;;;;5013865;28;20741;-80
2022/05/20 02:03:14;;;;;;;4.18;3.78;;;;;;;;;;5013573;28;20423;-80
2022/05/20 02:05:43;;;;;;;4.10;3.70;;;;;;;;;;5012334;28;20915;-80
2022/05/20 02:08:12;;;;;;;4.28;3.88;;;;;;;;;;5014677;28;20381;-80
2022/05/20 02:10:39;;;;;;;6.47;3.80;;;;;;;;;;5011328;28;20393;-80
2022/05/20 02:13:08;;;;;;;4.10;3.80;;;;;;;;;;5010403;28;20802;-80
2022/05/20 02:15:46;;;;;;;3.97;3.67;;;;;;;;;;5012695;28;20835;-80
2022/05/20 02:18:16;;;;;;;4.10;3.80;;;;;;;;;;5011952;28;20385;-80
2022/05/20 02:20:52;;;;;;;4.00;3.70;;;;;;;;;;5012593;28;20464;-80
2022/05/20 02:23:20;;;;;;;4.03;3.70;;;;;;;;;;5012976;28;20416;-80
2022/05/20 02:25:49;;;;;;;4.28;3.88;;;;;;;;;;5013415;28;20388;-80
2022/05/20 02:28:25;;;;;;;4.30;3.90;;;;;;;;;;5010588;28;20402;-80
2022/05/20 02:30:51;;;;;;;4.53;3.80;;;;;;;;;;5005371;28;20464;-80
2022/05/20 02:33:22;;;;;;;4.18;3.88;;;;;;;;;;5013177;28;20525;-80
2022/05/20 02:35:48;;;;;;;3.90;3.60;;;;;;;;;;5013383;28;20395;-80
2022/05/20 02:38:19;;;;;;;3.90;3.60;;;;;;;;;;5013177;28;20854;-80
2022/05/20 02:40:46;;;;;;;4.30;3.90;;;;;;;;;;5013108;28;20389;-80
2022/05/20 02:43:13;;;;;;;3.90;3.65;;;;;;;;;;5009480;28;20401;-80
2022/05/20 02:45:40;;;;;;;4.50;4.10;;;;;;;;;;5013275;28;20438;-80
2022/05/20 02:48:06;;;;;;;4.57;3.90;;;;;;;;;;5013030;28;20466;-80
2022/05/20 02:50:32;;;;;;;4.25;3.95;;;;;;;;;;5012836;28;20389;-80
2022/05/20 02:53:00;;;;;;;3.40;3.20;;;;;;;;;;5012969;28;20397;-80
2022/05/20 02:55:26;;;;;;;4.23;3.60;;;;;;;;;;5012851;28;20515;-80
2022/05/20 02:57:52;;;;;;;3.90;3.60;;;;;;;;;;5012879;28;20393;-80
2022/05/20 03:05:47;;;;;;;4.20;3.90;;;;;;;;;;5012948;28;20380;-80
2022/05/20 03:08:13;;;;;;;4.28;3.90;;;;;;;;;;5012726;28;20391;-80
2022/05/20 03:10:39;;;;;;;4.32;3.92;;;;;;;;;;5012622;28;20416;-80
2022/05/20 03:13:09;;;;;;;4.20;3.90;;;;;;;;;;5010685;28;20389;-81
2022/05/20 03:15:37;;;;;;;4.10;3.70;;;;;;;;;;5007187;28;20388;-79
2022/05/20 03:18:03;;;;;;;4.20;3.90;;;;;;;;;;5011346;28;20472;-79
2022/05/20 03:20:29;;;;;;;4.20;3.90;;;;;;;;;;5008800;28;20892;-79
2022/05/20 03:22:55;;;;;;;4.10;3.80;;;;;;;;;;5010989;28;20408;-79
2022/05/20 03:25:21;;;;;;;4.10;3.80;;;;;;;;;;5011618;28;20392;-80
2022/05/20 03:27:48;;;;;;;3.95;3.65;;;;;;;;;;5011585;28;20797;-80
2022/05/20 03:30:14;;;;;;;4.33;3.70;;;;;;;;;;5014088;28;20741;-80
2022/05/20 03:32:40;;;;;;;4.10;3.70;;;;;;;;;;5009681;28;20404;-79
2022/05/20 03:35:06;;;;;;;4.00;3.60;;;;;;;;;;5010090;28;20870;-80
2022/05/20 03:37:32;;;;;;;4.30;3.90;;;;;;;;;;5011444;28;20427;-79
2022/05/20 03:39:58;;;;;;;4.50;4.10;;;;;;;;;;5010163;28;20389;-81
2022/05/20 03:42:25;;;;;;;4.20;3.90;;;;;;;;;;5009755;28;20818;-82
2022/05/20 03:44:51;;;;;;;4.00;3.70;;;;;;;;;;5011328;28;20476;-80
2022/05/20 03:47:18;;;;;;;4.40;4.03;;;;;;;;;;5008752;28;20380;-80
2022/05/20 03:49:44;;;;;;;4.45;4.13;;;;;;;;;;5011261;28;20746;-80
2022/05/20 03:52:11;;;;;;;4.03;3.72;;;;;;;;;;5011177;28;20377;-80
2022/05/20 03:54:37;;;;;;;3.78;3.47;;;;;;;;;;5010535;28;20471;-80
2022/05/20 03:57:04;;;;;;;3.78;3.47;;;;;;;;;;5010392;28;20465;-80
2022/05/20 03:59:33;;;;;;;4.35;3.95;;;;;;;;;;5010223;28;20377;-80
2022/05/20 04:02:00;;;;;;;4.15;3.83;;;;;;;;;;5009994;28;20412;-80
2022/05/20 04:04:31;;;;;;;4.30;3.97;;;;;;;;;;5008687;28;20993;-80
2022/05/20 04:06:58;;;;;;;4.23;3.93;;;;;;;;;;5010084;28;20471;-80
2022/05/20 04:09:24;;;;;;;4.10;3.80;;;;;;;;;;5009970;28;20384;-80
2022/05/20 04:11:53;;;;;;;4.40;4.00;;;;;;;;;;5009806;28;20427;-80
2022/05/20 04:14:19;;;;;;;5.30;3.88;;;;;;;;;;5014701;28;20388;-80
2022/05/20 04:16:45;;;;;;;4.90;4.50;;;;;;;;;;5018299;28;20750;-80
2022/05/20 04:19:11;;;;;;;4.40;4.00;;;;;;;;;;5015925;28;20392;-80
2022/05/20 04:21:38;;;;;;;6.07;4.00;;;;;;;;;;5015452;28;20411;-80
2022/05/20 04:24:04;;;;;;;4.10;3.80;;;;;;;;;;5015617;28;20494;-80
2022/05/20 04:26:30;;;;;;;4.55;4.22;;;;;;;;;;5011714;28;20830;-80
2022/05/20 04:28:56;;;;;;;4.00;3.70;;;;;;;;;;5005536;28;20781;-81
2022/05/20 04:31:22;;;;;;;4.22;3.92;;;;;;;;;;5015407;28;20383;-80
2022/05/20 04:33:49;;;;;;;4.53;4.13;;;;;;;;;;5015561;28;20415;-80
2022/05/20 04:36:14;;;;;;;4.22;3.92;;;;;;;;;;5014613;28;20381;-80
2022/05/20 04:38:40;;;;;;;4.25;3.78;;;;;;;;;;5013045;28;20388;-81
2022/05/20 04:49:20;;;;;;;4.40;4.10;;;;;;;;;;5015265;28;20400;-80
2022/05/20 04:51:46;;;;;;;4.43;4.13;;;;;;;;;;5015005;28;20797;-80
2022/05/20 04:57:09;;;;;;;4.55;4.15;;;;;;;;;;4989480;28;20882;-81
2022/05/20 04:59:39;;;;;;;4.00;3.70;;;;;;;;;;5014986;28;20392;-80
2022/05/20 05:02:05;;;;;;;4.05;3.75;;;;;;;;;;5014845;28;20385;-81
2022/05/20 05:04:31;;;;;;;4.80;4.00;;;;;;;;;;5014773;28;20439;-81
2022/05/20 05:06:58;;;;;;;4.60;4.20;;;;;;;;;;5014974;28;20377;-81
2022/05/20 05:09:24;;;;;;;4.95;4.47;;;;;;;;;;5014850;28;20376;-81
2022/05/20 05:11:50;;;;;;;4.10;3.80;;;;;;;;;;5014712;28;20465;-81
2022/05/20 05:14:16;;;;;;;4.55;4.20;;;;;;;;;;5014288;28;20391;-81
2022/05/20 05:16:43;;;;;;;4.90;4.50;;;;;;;;;;5009038;28;20410;-80
2022/05/20 05:19:09;;;;;;;4.45;4.05;;;;;;;;;;5013914;28;20392;-80
2022/05/20 05:21:36;;;;;;;5.55;5.05;;;;;;;;;;5012291;28;20400;-80
2022/05/20 05:24:02;;;;;;;5.45;5.05;;;;;;;;;;5011941;28;20785;-80
2022/05/20 05:26:29;;;;;;;4.63;4.32;;;;;;;;;;5012943;28;20384;-81
2022/05/20 05:28:56;;;;;;;4.35;4.05;;;;;;;;;;5014358;28;20459;-81
2022/05/20 05:31:22;;;;;;;4.47;4.05;;;;;;;;;;5014167;28;20882;-81
2022/05/20 05:33:49;;;;;;;5.37;4.87;;;;;;;;;;5014393;28;20474;-81
2022/05/20 05:36:16;;;;;;;4.18;3.78;;;;;;;;;;5013603;28;20757;-81
2022/05/20 05:38:43;;;;;;;4.60;4.20;;;;;;;;;;5011145;28;20785;-81
2022/05/20 05:41:10;;;;;;;4.88;4.47;;;;;;;;;;5014168;28;20392;-81
2022/05/20 05:43:36;;;;;;;4.88;4.32;;;;;;;;;;5013897;28;20405;-81
2022/05/20 05:46:02;;;;;;;5.57;4.45;;;;;;;;;;5014097;28;20385;-81
2022/05/20 05:48:28;;;;;;;4.90;4.40;;;;;;;;;;5012131;28;20439;-81
2022/05/20 05:50:55;;;;;;;4.78;4.28;;;;;;;;;;5012491;28;20388;-81
2022/05/20 05:53:22;;;;;;;4.57;3.95;;;;;;;;;;5012175;28;20460;-81
2022/05/20 05:55:54;;;;;;;4.43;4.07;;;;;;;;;;5011204;28;20385;-81
2022/05/20 05:58:20;;;;;;;5.10;4.28;;;;;;;;;;5012736;28;20396;-81
2022/05/20 06:00:46;;;;;;;4.25;3.92;;;;;;;;;;5013738;28;20929;-82
2022/05/20 06:03:15;;;;;;;4.47;4.05;;;;;;;;;;5013149;28;20463;-82
2022/05/20 06:05:42;;;;;;;4.70;4.30;;;;;;;;;;5013664;28;20420;-81
2022/05/20 06:08:08;;;;;;;4.97;4.32;;;;;;;;;;5013913;28;20439;-82
2022/05/20 06:10:34;;;;;;;4.45;4.15;;;;;;;;;;5013689;28;20931;-81
2022/05/20 06:13:00;;;;;;;4.38;3.97;;;;;;;;;;5013353;28;20381;-81
2022/05/20 06:15:26;;;;;;;4.70;4.30;;;;;;;;;;5012926;28;20524;-81
2022/05/20 06:17:53;;;;;;;4.73;3.97;;;;;;;;;;5013526;28;20396;-81
2022/05/20 06:20:20;;;;;;;4.78;4.00;;;;;;;;;;5021946;28;20941;-81
2022/05/20 06:22:46;;;;;;;5.85;4.28;;;;;;;;;;5018052;28;20448;-81
2022/05/20 06:25:13;;;;;;;4.88;4.45;;;;;;;;;;5012206;28;20388;-81
2022/05/20 06:27:39;;;;;;;4.60;4.10;;;;;;;;;;5007863;28;20474;-81
2022/05/20 06:30:08;;;;;;;6.20;4.85;;;;;;;;;;5009897;28;20443;-81
2022/05/20 06:32:34;;;;;;;7.40;5.10;;;;;;;;;;5013072;28;20411;-81
2022/05/20 06:40:36;;;;;;;6.20;5.63;;;;;;;;;;5011427;28;20411;-80
2022/05/20 06:43:04;;;;;;;7.55;6.20;;;;;;;;;;5012116;28;20500;-80
2022/05/20 06:45:33;;;;;;;7.95;7.25;;;;;;;;;;5012612;28;20384;-80
2022/05/20 06:47:59;;;;;;;6.72;6.13;;;;;;;;;;5013023;28;20492;-80
2022/05/20 06:50:25;;;;;;;7.70;6.90;;;;;;;;;;5012832;28;20377;-80
2022/05/20 06:52:51;;;;;;;7.35;6.65;;;;;;;;;;5013318;28;20400;-80
2022/05/20 06:55:17;;;;;;;8.43;7.15;;;;;;;;;;5012766;28;20391;-80
2022/05/20 06:57:43;;;;;;;10.48;7.68;;;;;;;;;;5012884;28;20388;-80
2022/05/20 07:00:11;;;;;;;8.65;7.50;;;;;;;;;;5012651;28;20377;-80
2022/05/20 07:02:37;;;;;;;8.68;7.05;;;;;;;;;;5012573;28;20495;-80
2022/05/20 07:05:04;;;;;;;9.13;7.13;;;;;;;;;;5012924;28;20500;-80
2022/05/20 07:07:31;;;;;;;8.73;6.68;;;;;;;;;;5012620;28;20389;-80
2022/05/20 07:09:57;;;;;;;8.98;6.97;;;;;;;;;;5012704;28;20448;-80
2022/05/20 07:12:23;;;;;;;8.13;7.32;;;;;;;;;;5012577;28;20384;-80
2022/05/20 07:14:50;;;;;;;8.45;7.40;;;;;;;;;;5012335;28;20396;-80
2022/05/20 07:17:20;;;;;;;10.05;7.80;;;;;;;;;;5012422;28;20377;-80
2022/05/20 07:19:46;;;;;;;9.50;7.13;;;;;;;;;;5012502;28;20416;-81
2022/05/20 07:22:12;;;;;;;8.60;7.65;;;;;;;;;;5012495;28;20482;-81
2022/05/20 07:24:39;;;;;;;6.80;5.70;;;;;;;;;;5012554;28;20849;-80
2022/05/20 07:27:05;;;;;;;8.10;6.18;;;;;;;;;;5012359;28;20475;-81
2022/05/20 07:29:31;;;;;;;6.65;5.93;;;;;;;;;;5014845;28;20952;-81
2022/05/20 07:31:57;;;;;;;9.63;6.17;;;;;;;;;;5012742;28;20407;-81
2022/05/20 07:34:24;;;;;;;7.03;5.57;;;;;;;;;;5012520;28;20870;-81
2022/05/20 07:36:50;;;;;;;5.40;4.80;;;;;;;;;;5012278;28;20789;-81
2022/05/20 07:39:16;;;;;;;7.37;4.80;;;;;;;;;;5012476;28;20388;-81
2022/05/20 07:41:42;;;;;;;7.88;5.13;;;;;;;;;;5012165;28;20396;-81
2022/05/20 07:44:08;;;;;;;9.43;6.10;;;;;;;;;;5011075;28;20454;-81
2022/05/20 07:46:34;;;;;;;6.05;4.90;;;;;;;;;;5009856;28;20858;-81
2022/05/20 07:49:00;;;;;;;4.18;3.47;;;;;;;;;;5015821;28;20388;-81
2022/05/20 07:51:27;;;;;;;4.15;3.40;;;;;;;;;;5016500;28;20433;-81
2022/05/20 07:53:56;;;;;;;4.05;3.45;;;;;;;;;;5016164;28;20385;-80
2022/05/20 07:56:27;;;;;;;4.10;3.78;;;;;;;;;;5016194;28;20389;-81
2022/05/20 07:58:58;;;;;;;5.82;4.20;;;;;;;;;;5016067;28;20392;-81
2022/05/20 08:01:26;;;;;;;7.10;4.40;;;;;;;;;;5016039;28;20514;-81
2022/05/20 08:06:40;;;;;;;28.05;3.95;;;;;;;;;;5016153;28;20380;-82
2022/05/20 08:09:06;;;;;;;4.50;3.10;;;;;;;;;;5016304;28;20388;-81
2022/05/20 08:11:32;;;;;;;4.28;3.50;;;;;;;;;;5015934;28;20372;-82
2022/05/20 08:13:58;;;;;;;5.50;4.90;;;;;;;;;;5015764;28;20377;-82
2022/05/20 08:16:25;;;;;;;5.18;3.95;;;;;;;;;;5015726;28;20426;-82
2022/05/20 08:18:52;;;;;;;8.68;4.05;;;;;;;;;;5015791;28;20407;-82
2022/05/20 08:21:18;;;;;;;5.90;3.75;;;;;;;;;;5018046;28;20410;-82
2022/05/20 08:23:45;;;;;;;7.60;3.17;;;;;;;;;;5015571;28;20417;-82
2022/05/20 08:26:12;;;;;;;7.22;3.70;;;;;;;;;;5015575;28;20891;-82
2022/05/20 08:28:38;;;;;;;4.47;3.67;;;;;;;;;;5015453;28;20719;-82
2022/05/20 08:31:04;;;;;;;4.32;3.50;;;;;;;;;;5015598;28;20391;-82
2022/05/20 08:33:30;;;;;;;3.20;2.90;;;;;;;;;;5008854;28;20441;-83
2022/05/20 08:35:58;;;;;;;3.40;3.00;;;;;;;;;;5015514;28;20400;-83
2022/05/20 08:38:25;;;;;;;3.33;2.70;;;;;;;;;;5015426;28;20389;-82
2022/05/20 08:40:51;;;;;;;3.30;3.00;;;;;;;;;;5015607;28;20381;-82
2022/05/20 08:43:22;;;;;;;3.33;2.55;;;;;;;;;;5015023;28;20748;-82
2022/05/20 08:45:48;;;;;;;3.20;2.90;;;;;;;;;;5015520;28;20373;-83
2022/05/20 08:48:16;;;;;;;3.90;3.03;;;;;;;;;;5015212;28;20383;-83
2022/05/20 08:50:44;;;;;;;3.35;2.50;;;;;;;;;;5015199;28;20380;-83
2022/05/20 08:53:17;;;;;;;2.80;2.60;;;;;;;;;;5015173;28;20409;-83
2022/05/20 08:55:43;;;;;;;2.97;2.67;;;;;;;;;;5015467;28;20464;-83
2022/05/20 08:58:10;;;;;;;2.70;2.50;;;;;;;;;;5013710;28;20942;-83
2022/05/20 09:00:36;;;;;;;3.10;2.80;;;;;;;;;;5014999;28;20480;-82
2022/05/20 09:03:06;;;;;;;3.25;2.53;;;;;;;;;;5014821;28;20955;-83
2022/05/20 09:05:34;;;;;;;5.47;2.92;;;;;;;;;;5015230;28;20472;-83
2022/05/20 09:08:03;;;;;;;3.70;2.60;;;;;;;;;;5014874;28;20941;-83
2022/05/20 09:10:34;;;;;;;3.88;2.90;;;;;;;;;;5014889;28;20400;-83
2022/05/20 09:13:08;;;;;;;3.22;2.60;;;;;;;;;;5028667;28;20471;-83
2022/05/20 09:15:43;;;;;;;10.05;2.97;;;;;;;;;;5014612;28;20389;-83
2022/05/20 09:18:11;;;;;;;4.45;2.65;;;;;;;;;;5013451;28;20782;-83
2022/05/20 09:20:44;;;;;;;3.85;2.80;;;;;;;;;;5014754;28;20471;-84
2022/05/20 09:23:11;;;;;;;23.20;3.80;;;;;;;;;;5014392;28;20404;-83
2022/05/20 09:25:44;;;;;;;6.32;2.97;;;;;;;;;;5014640;28;20415;-84
2022/05/20 09:28:32;;;;;;;57.00;5.40;;;;;;;;;;5014455;28;20404;-83
2022/05/20 09:31:18;;;;;;;3.88;3.20;;;;;;;;;;5019197;28;20438;-84
2022/05/20 09:33:49;;;;;;;4.85;3.13;;;;;;;;;;5007290;28;20393;-83
2022/05/20 09:36:30;;;;;;;3.07;2.60;;;;;;;;;;5014369;28;20875;-84
2022/05/20 09:39:06;;;;;;;6.68;3.00;;;;;;;;;;5014479;28;20403;-84
2022/05/20 09:41:33;;;;;;;7.00;3.10;;;;;;;;;;5014444;28;20810;-83
2022/05/20 09:44:00;;;;;;;6.53;2.92;;;;;;;;;;5014012;28;20404;-83
2022/05/20 09:46:29;;;;;;;9.18;3.00;;;;;;;;;;5010879;28;20468;-83
2022/05/20 09:49:02;;;;;;;4.65;2.90;;;;;;;;;;5000531;28;20377;-83
2022/05/20 09:51:37;;;;;;;12.32;3.40;;;;;;;;;;5014064;28;20379;-84
2022/05/20 09:54:16;;;;;;;36.30;4.47;;;;;;;;;;5014055;28;20463;-83
2022/05/20 09:56:44;;;;;;;6.95;3.10;;;;;;;;;;5013882;28;20404;-83
2022/05/20 09:59:10;;;;;;;4.32;2.95;;;;;;;;;;5013826;28;20964;-83
2022/05/20 10:01:37;;;;;;;4.10;3.05;;;;;;;;;;5013895;28;20389;-84
2022/05/20 10:04:05;;;;;;;39.95;4.82;;;;;;;;;;5013735;28;20459;-84
2022/05/20 10:06:33;;;;;;;3.88;2.90;;;;;;;;;;5013814;28;20850;-83
2022/05/20 10:09:21;;;;;;;3.40;3.10;;;;;;;;;;5013996;28;20377;-83
2022/05/20 10:11:51;;;;;;;11.73;3.28;;;;;;;;;;5012991;28;20723;-83
2022/05/20 10:14:21;;;;;;;6.28;2.80;;;;;;;;;;5013482;28;20431;-85
2022/05/20 10:17:06;;;;;;;9.40;3.05;;;;;;;;;;5013687;28;20885;-84
2022/05/20 10:19:52;;;;;;;3.10;2.80;;;;;;;;;;5013499;28;20416;-83
2022/05/20 10:22:28;;;;;;;4.65;2.90;;;;;;;;;;5013380;28;20391;-84
2022/05/20 10:25:03;;;;;;;7.07;2.80;;;;;;;;;;5015255;28;20399;-84
2022/05/20 10:27:34;;;;;;;2.90;2.60;;;;;;;;;;5004570;28;20879;-84
2022/05/20 10:33:04;;;;;;;8.95;2.78;;;;;;;;;;5013473;28;20513;-83
2022/05/20 10:35:49;;;;;;;10.57;3.33;;;;;;;;;;5012284;28;20940;-85
2022/05/20 10:38:20;;;;;;;4.93;2.85;;;;;;;;;;5009860;28;20408;-84
2022/05/20 10:40:50;;;;;;;3.80;2.60;;;;;;;;;;5013271;28;20420;-84
2022/05/20 10:49:18;;;;;;;3.80;2.47;;;;;;;;;;5013268;28;20467;-84
2022/05/20 10:51:43;;;;;;;4.63;2.75;;;;;;;;;;5012843;28;20419;-84
2022/05/20 10:54:28;;;;;;;3.33;2.67;;;;;;;;;;5013330;28;20420;-84
2022/05/20 10:56:57;;;;;;;4.50;2.50;;;;;;;;;;5012690;28;20463;-84
2022/05/20 10:59:38;;;;;;;4.18;2.75;;;;;;;;;;5012784;28;20434;-84
2022/05/20 11:02:15;;;;;;;3.63;2.47;;;;;;;;;;5012691;28;20381;-87
2022/05/20 11:04:41;;;;;;;3.95;2.70;;;;;;;;;;5013241;28;20404;-86
2022/05/20 11:07:22;;;;;;;3.70;2.63;;;;;;;;;;5012734;28;20424;-84
2022/05/20 11:09:48;;;;;;;3.88;2.70;;;;;;;;;;5012723;28;20468;-86
2022/05/20 11:12:26;;;;;;;4.00;2.70;;;;;;;;;;5012633;28;20408;-84
2022/05/20 11:15:04;;;;;;;6.47;2.93;;;;;;;;;;5012442;28;20481;-83
2022/05/20 11:17:30;;;;;;;4.95;2.72;;;;;;;;;;5012634;28;20381;-87
2022/05/20 11:20:16;;;;;;;4.80;3.83;;;;;;;;;;5012486;28;20384;-88
2022/05/20 11:23:01;;;;;;;3.70;2.58;;;;;;;;;;5011094;28;20428;-87
2022/05/20 11:25:37;;;;;;;4.35;2.30;;;;;;;;;;5021749;28;20461;-86
2022/05/20 11:28:12;;;;;;;3.50;2.38;;;;;;;;;;5016048;28;20393;-85
2022/05/20 11:30:52;;;;;;;2.75;2.40;;;;;;;;;;5012358;28;20381;-85
2022/05/20 11:33:24;;;;;;;4.88;2.28;;;;;;;;;;5016347;28;20385;-85
2022/05/20 11:36:10;;;;;;;2.85;2.35;;;;;;;;;;5021752;28;20472;-86
2022/05/20 11:38:55;;;;;;;3.42;2.58;;;;;;;;;;5014312;28;20367;-84
2022/05/20 11:41:23;;;;;;;3.80;2.63;;;;;;;;;;5018276;28;20815;-85
2022/05/20 11:44:04;;;;;;;4.65;2.50;;;;;;;;;;5012140;28;20487;-84
2022/05/20 11:46:33;;;;;;;2.90;2.60;;;;;;;;;;5012255;28;20380;-86
2022/05/20 11:48:59;;;;;;;3.22;2.25;;;;;;;;;;5012223;28;20377;-86
2022/05/20 11:51:40;;;;;;;3.90;2.50;;;;;;;;;;5012241;28;20870;-87
2022/05/20 11:54:14;;;;;;;3.10;2.70;;;;;;;;;;5012281;28;20860;-84
2022/05/20 11:56:42;;;;;;;3.70;2.80;;;;;;;;;;5012253;28;20858;-84
2022/05/20 11:59:09;;;;;;;4.15;2.67;;;;;;;;;;5018428;28;20379;-86
2022/05/20 12:01:36;;;;;;;2.90;2.58;;;;;;;;;;5019594;28;20381;-86
2022/05/20 12:04:07;;;;;;;6.90;3.10;;;;;;;;;;5011987;28;20408;-86
2022/05/20 12:06:34;;;;;;;5.28;2.90;;;;;;;;;;5010925;28;20794;-86
2022/05/20 12:09:00;;;;;;;3.20;2.80;;;;;;;;;;5012186;28;20388;-86
2022/05/20 12:11:35;;;;;;;3.83;2.42;;;;;;;;;;5026173;28;20392;-84
2022/05/20 12:14:01;;;;;;;4.80;2.60;;;;;;;;;;5011977;28;20381;-84
2022/05/20 12:16:27;;;;;;;3.65;2.63;;;;;;;;;;5011935;28;20499;-84
2022/05/20 12:24:49;;;;;;;5.10;2.63;;;;;;;;;;5013479;28;20435;-86
2022/05/20 12:27:24;;;;;;;3.50;2.30;;;;;;;;;;5009555;28;20389;-85
2022/05/20 12:30:01;;;;;;;2.70;2.40;;;;;;;;;;5007958;28;20847;-86
2022/05/20 12:32:31;;;;;;;3.80;2.40;;;;;;;;;;5009832;28;20377;-85
2022/05/20 12:34:57;;;;;;;5.20;2.60;;;;;;;;;;5013130;28;20386;-85
2022/05/20 12:37:41;;;;;;;4.07;2.70;;;;;;;;;;5013457;28;20389;-84
2022/05/20 12:40:16;;;;;;;3.37;2.47;;;;;;;;;;5013381;28;20380;-84
2022/05/20 12:42:47;;;;;;;3.13;2.28;;;;;;;;;;5013298;28;20438;-86
2022/05/20 12:45:14;;;;;;;5.32;2.50;;;;;;;;;;5002417;28;20774;-86
2022/05/20 12:47:40;;;;;;;5.75;2.50;;;;;;;;;;5015020;28;20373;-85
2022/05/20 12:50:09;;;;;;;4.85;2.47;;;;;;;;;;5015246;28;20407;-85
2022/05/20 12:53:04;;;;;;;3.67;2.35;;;;;;;;;;5015221;28;20381;-85
2022/05/20 12:55:37;;;;;;;3.55;2.30;;;;;;;;;;4995055;28;20412;-86
2022/05/20 12:58:04;;;;;;;4.83;2.57;;;;;;;;;;5015184;28;20408;-85
2022/05/20 13:00:35;;;;;;;3.72;2.40;;;;;;;;;;5014918;28;20417;-84
2022/05/20 13:03:07;;;;;;;3.78;2.53;;;;;;;;;;5014793;28;20409;-85
2022/05/20 13:05:33;;;;;;;4.13;2.50;;;;;;;;;;5014953;28;20415;-84
2022/05/20 13:08:00;;;;;;;6.45;2.55;;;;;;;;;;5014954;28;20460;-85
2022/05/20 13:10:35;;;;;;;2.70;2.28;;;;;;;;;;5014959;28;20476;-85
2022/05/20 13:13:03;;;;;;;4.05;2.80;;;;;;;;;;5014699;28;20384;-85
2022/05/20 13:15:30;;;;;;;3.07;2.40;;;;;;;;;;5014665;28;20385;-86
2022/05/20 13:18:00;;;;;;;5.40;2.58;;;;;;;;;;5014738;28;20483;-86
2022/05/20 13:20:27;;;;;;;5.53;2.50;;;;;;;;;;5014725;28;20384;-86
2022/05/20 13:22:58;;;;;;;5.63;2.47;;;;;;;;;;5028273;28;20422;-85
2022/05/20 13:25:24;;;;;;;7.30;2.47;;;;;;;;;;5015896;28;20805;-86
2022/05/20 13:27:50;;;;;;;7.20;2.40;;;;;;;;;;5014514;28;20481;-84
2022/05/20 13:30:34;;;;;;;4.40;2.45;;;;;;;;;;5014403;28;20549;-85
2022/05/20 13:33:05;;;;;;;6.18;2.55;;;;;;;;;;5014294;28;20385;-86
2022/05/20 13:35:38;;;;;;;3.97;2.40;;;;;;;;;;5014631;28;20460;-85
2022/05/20 13:38:04;;;;;;;4.53;2.60;;;;;;;;;;5012174;28;20397;-83
2022/05/20 13:40:39;;;;;;;3.47;2.30;;;;;;;;;;5014218;28;20922;-86
2022/05/20 13:43:05;;;;;;;5.55;2.60;;;;;;;;;;5007672;28;20409;-83
2022/05/20 13:51:10;;;;;;;8.07;2.50;;;;;;;;;;5009409;28;20385;-87
2022/05/20 13:53:38;;;;;;;2.63;2.40;;;;;;;;;;4995188;28;20393;-87
2022/05/20 13:56:06;;;;;;;4.22;2.30;;;;;;;;;;4996503;28;20438;-88
2022/05/20 13:58:32;;;;;;;4.78;2.40;;;;;;;;;;4994519;28;20383;-88
2022/05/20 14:01:03;;;;;;;3.67;2.27;;;;;;;;;;5000474;28;20411;-88
2022/05/20 14:03:31;;;;;;;4.75;2.50;;;;;;;;;;5012427;28;20964;-88
2022/05/20 14:06:00;;;;;;;4.63;2.50;;;;;;;;;;5010814;28;20469;-87
2022/05/20 14:08:26;;;;;;;4.53;2.65;;;;;;;;;;5001372;28;20473;-87
2022/05/20 14:10:55;;;;;;;5.45;2.88;;;;;;;;;;5008873;28;20442;-87
2022/05/20 14:13:23;;;;;;;4.07;2.50;;;;;;;;;;5010978;28;20421;-88
2022/05/20 14:15:51;;;;;;;3.87;2.43;;;;;;;;;;5012529;28;20886;-89
2022/05/20 14:18:19;;;;;;;5.55;2.50;;;;;;;;;;4998582;28;20376;-87
2022/05/20 14:20:47;;;;;;;4.27;2.50;;;;;;;;;;5013097;28;20453;-87
2022/05/20 14:23:18;;;;;;;4.40;2.93;;;;;;;;;;5009923;28;20504;-88
2022/05/20 14:25:55;;;;;;;4.28;2.50;;;;;;;;;;5001125;28;20749;-86
2022/05/20 14:28:25;;;;;;;4.07;2.60;;;;;;;;;;5008454;28;20385;-87
2022/05/20 14:30:55;;;;;;;3.85;2.63;;;;;;;;;;5021420;28;20420;-87
2022/05/20 14:33:27;;;;;;;5.75;2.72;;;;;;;;;;5006379;28;20915;-86
2022/05/20 14:35:55;;;;;;;5.88;2.80;;;;;;;;;;5020896;28;20874;-85
2022/05/20 14:38:25;;;;;;;4.57;2.72;;;;;;;;;;5012245;28;20392;-84
2022/05/20 14:40:53;;;;;;;7.40;2.95;;;;;;;;;;5007413;28;20477;-84
2022/05/20 14:43:24;;;;;;;5.03;3.03;;;;;;;;;;5001258;28;20426;-84
2022/05/20 14:45:52;;;;;;;3.88;2.40;;;;;;;;;;5000599;28;20437;-84
2022/05/20 14:48:20;;;;;;;5.38;2.83;;;;;;;;;;5001571;28;20789;-83
2022/05/20 14:50:47;;;;;;;6.07;2.58;;;;;;;;;;5005819;28;20394;-84
2022/05/20 14:53:27;;;;;;;5.20;2.67;;;;;;;;;;5003418;28;20404;-82
2022/05/20 14:55:55;;;;;;;9.38;3.38;;;;;;;;;;5000273;28;20386;-83
2022/05/20 14:58:21;;;;;;;4.57;2.83;;;;;;;;;;5003770;28;20422;-83
2022/05/20 15:01:03;;;;;;;3.80;2.83;;;;;;;;;;4998876;28;20415;-84
2022/05/20 15:03:49;;;;;;;8.33;2.87;;;;;;;;;;5006925;28;20898;-84
2022/05/20 15:06:21;;;;;;;4.22;2.50;;;;;;;;;;5000691;28;20376;-83
2022/05/20 15:08:47;;;;;;;7.03;2.83;;;;;;;;;;4999700;28;20413;-84
2022/05/20 15:11:15;;;;;;;7.45;2.60;;;;;;;;;;4996956;28;20384;-84
2022/05/20 15:13:41;;;;;;;6.03;2.55;;;;;;;;;;4992204;28;20413;-84
2022/05/20 15:16:07;;;;;;;19.38;3.10;;;;;;;;;;5008515;28;20929;-83
2022/05/20 15:18:34;;;;;;;6.70;2.78;;;;;;;;;;5010860;28;20454;-83
2022/05/20 15:21:01;;;;;;;10.53;2.53;;;;;;;;;;5013019;28;20388;-83
2022/05/20 15:23:30;;;;;;;9.93;2.92;;;;;;;;;;5023256;28;20443;-83
2022/05/20 15:25:56;;;;;;;6.70;2.45;;;;;;;;;;5012578;28;20878;-83
2022/05/20 15:36:39;;;;;;;9.20;2.80;;;;;;;;;;5000820;28;20471;-84
2022/05/20 15:39:08;;;;;;;5.90;2.55;;;;;;;;;;5009917;28;20396;-83
2022/05/20 15:41:34;;;;;;;4.47;2.67;;;;;;;;;;4996741;28;20382;-83
2022/05/20 15:44:00;;;;;;;5.53;2.45;;;;;;;;;;5007485;28;20420;-82
2022/05/20 15:46:26;;;;;;;4.82;2.20;;;;;;;;;;5011293;28;20757;-83
2022/05/20 15:48:52;;;;;;;6.72;2.60;;;;;;;;;;4999200;28;20592;-83